createdAt,value
2023-05-30T00:01:01.018Z,100254.38
2023-05-30T00:04:03.909Z,100259.94
2023-05-30T00:07:07.341Z,100254.44
2023-05-30T00:10:10.381Z,100250.63
2023-05-30T00:13:14.122Z,100257.53
2023-05-30T00:16:20.692Z,100258.28
2023-05-30T00:19:23.852Z,100253.44
2023-05-30T00:22:26.925Z,100252.97
2023-05-30T00:25:29.492Z,100247.34
2023-05-30T00:28:32.322Z,100250.19
2023-05-30T00:31:34.879Z,100254.38
2023-05-30T00:34:37.523Z,100259.34
2023-05-30T00:37:41.094Z,100255.22
2023-05-30T00:40:43.714Z,100256.16
2023-05-30T00:43:46.498Z,100250.34
2023-05-30T00:46:51.797Z,100252.78
2023-05-30T00:49:55.497Z,100248.69
2023-05-30T00:52:59.513Z,100237.81
2023-05-30T00:56:02.547Z,100239.22
2023-05-30T00:59:05.553Z,100247.41
2023-05-30T01:02:08.194Z,100250.19
2023-05-30T01:05:13.722Z,100246.34
2023-05-30T01:08:16.961Z,100244.66
2023-05-30T01:11:53.332Z,100246.19
2023-05-30T01:15:04.103Z,100249.38
2023-05-30T01:18:40.504Z,100240.31
2023-05-30T01:21:44.443Z,100245.03
2023-05-30T01:25:06.208Z,100252.75
2023-05-30T01:28:14.345Z,100241.41
2023-05-30T01:31:18.141Z,100238.81
2023-05-30T01:34:21.559Z,100242.09
2023-05-30T01:37:24.105Z,100240.47
2023-05-30T01:40:29.748Z,100239.28
2023-05-30T01:43:49.235Z,100237.06
2023-05-30T01:47:05.633Z,100233.31
2023-05-30T01:50:18.541Z,100236.31
2023-05-30T01:53:36.616Z,100228.47
2023-05-30T01:56:40.879Z,100239.84
2023-05-30T01:59:44.711Z,100239.63
2023-05-30T02:02:47.615Z,100232.25
2023-05-30T02:05:50.255Z,100235.41
2023-05-30T02:08:52.871Z,100232.38
2023-05-30T02:11:55.966Z,100226.03
2023-05-30T02:14:58.983Z,100237.19
2023-05-30T02:18:01.618Z,100235.56
2023-05-30T02:21:04.277Z,100236.59
2023-05-30T02:24:07.080Z,100233.47
2023-05-30T02:27:10.590Z,100237.19
2023-05-30T02:30:13.792Z,100224.06
2023-05-30T02:33:16.399Z,100227.25
2023-05-30T02:36:18.990Z,100227.59
2023-05-30T02:39:21.738Z,100227.97
2023-05-30T02:42:24.563Z,100228.31
2023-05-30T02:45:27.166Z,100230.41
2023-05-30T02:48:30.113Z,100227.41
2023-05-30T02:51:34.611Z,100228.44
2023-05-30T02:54:39.528Z,100228.13
2023-05-30T02:57:48.223Z,100228.81
2023-05-30T03:00:56.602Z,100232.91
2023-05-30T03:03:59.632Z,100234.06
2023-05-30T03:07:19.253Z,100236.53
2023-05-30T03:10:22.637Z,100234.28
2023-05-30T03:13:27.074Z,100237.69
2023-05-30T03:16:30.253Z,100244.63
2023-05-30T03:19:34.297Z,100239.72
2023-05-30T03:22:40.649Z,100244.03
2023-05-30T03:25:43.281Z,100245.66
2023-05-30T03:28:46.264Z,100249.75
2023-05-30T03:31:54.338Z,100251.28
2023-05-30T03:34:56.925Z,100256.63
2023-05-30T03:38:02.436Z,100252.28
2023-05-30T03:41:06.779Z,100262.81
2023-05-30T03:44:10.359Z,100262.75
2023-05-30T03:47:12.809Z,100266.00
2023-05-30T03:50:15.481Z,100264.94
2023-05-30T03:53:18.079Z,100260.50
2023-05-30T03:56:21.997Z,100273.97
2023-05-30T03:59:26.116Z,100275.59
2023-05-30T04:02:28.773Z,100278.50
2023-05-30T04:05:31.636Z,100282.94
2023-05-30T04:08:34.547Z,100286.59
2023-05-30T04:11:37.087Z,100285.13
2023-05-30T04:14:39.689Z,100285.19
2023-05-30T04:17:42.304Z,100288.91
2023-05-30T04:20:45.265Z,100288.69
2023-05-30T04:23:47.835Z,100288.84
2023-05-30T04:26:51.914Z,100288.91
2023-05-30T04:29:56.486Z,100290.75
2023-05-30T04:32:59.169Z,100289.00
2023-05-30T04:36:07.552Z,100294.31
2023-05-30T04:39:10.159Z,100300.34
2023-05-30T04:42:13.312Z,100294.78
2023-05-30T04:45:17.881Z,100301.66
2023-05-30T04:48:20.454Z,100302.38
2023-05-30T04:51:24.653Z,100298.56
2023-05-30T04:54:28.438Z,100296.56
2023-05-30T04:57:31.586Z,100293.91
2023-05-30T05:00:36.395Z,100293.28
2023-05-30T05:03:39.471Z,100293.53
2023-05-30T05:06:42.451Z,100296.28
2023-05-30T05:09:45.602Z,100290.66
2023-05-30T05:12:48.269Z,100297.69
2023-05-30T05:15:51.374Z,100305.03
2023-05-30T05:18:54.036Z,100313.28
2023-05-30T05:21:57.367Z,100307.72
2023-05-30T05:25:00.290Z,100308.91
2023-05-30T05:28:03.021Z,100307.25
2023-05-30T05:31:06.616Z,100316.84
2023-05-30T05:34:09.945Z,100319.63
2023-05-30T05:37:12.623Z,100320.41
2023-05-30T05:40:15.693Z,100324.59
2023-05-30T05:43:18.389Z,100323.19
2023-05-30T05:46:21.024Z,100327.28
2023-05-30T05:49:23.696Z,100325.47
2023-05-30T05:52:26.808Z,100314.72
2023-05-30T05:55:29.410Z,100323.75
2023-05-30T05:58:34.210Z,100328.75
2023-05-30T06:01:40.694Z,100334.53
2023-05-30T06:04:43.362Z,100339.47
2023-05-30T06:07:46.103Z,100339.03
2023-05-30T06:10:48.927Z,100350.25
2023-05-30T06:13:51.433Z,100355.75
2023-05-30T06:16:54.352Z,100347.09
2023-05-30T06:19:56.927Z,100353.31
2023-05-30T06:22:59.512Z,100361.06
2023-05-30T06:26:02.174Z,100354.84
2023-05-30T06:29:04.834Z,100359.75
2023-05-30T06:32:16.355Z,100356.22
2023-05-30T06:35:19.769Z,100363.56
2023-05-30T06:38:22.364Z,100355.19
2023-05-30T06:41:25.017Z,100350.81
2023-05-30T06:44:27.754Z,100356.28
2023-05-30T06:47:30.497Z,100356.28
2023-05-30T06:50:33.143Z,100360.91
2023-05-30T06:53:37.077Z,100356.00
2023-05-30T06:56:39.805Z,100360.34
2023-05-30T06:59:42.456Z,100360.91
2023-05-30T07:02:45.652Z,100365.81
2023-05-30T07:05:48.965Z,100358.75
2023-05-30T07:08:51.862Z,100356.00
2023-05-30T07:11:54.587Z,100357.91
2023-05-30T07:14:57.174Z,100359.00
2023-05-30T07:17:59.973Z,100358.72
2023-05-30T07:21:02.689Z,100358.16
2023-05-30T07:24:05.375Z,100366.88
2023-05-30T07:27:08.069Z,100367.69
2023-05-30T07:30:10.950Z,100361.38
2023-05-30T07:33:13.599Z,100363.63
2023-05-30T07:36:16.619Z,100370.66
2023-05-30T07:39:19.176Z,100360.53
2023-05-30T07:42:23.216Z,100367.06
2023-05-30T07:45:26.014Z,100360.22
2023-05-30T07:48:28.629Z,100369.16
2023-05-30T07:51:32.582Z,100365.63
2023-05-30T07:54:35.189Z,100368.81
2023-05-30T07:57:37.752Z,100366.81
2023-05-30T08:00:40.505Z,100363.34
2023-05-30T08:03:43.322Z,100362.78
2023-05-30T08:06:46.097Z,100361.03
2023-05-30T08:09:48.858Z,100355.19
2023-05-30T08:12:51.679Z,100354.19
2023-05-30T08:15:54.481Z,100356.34
2023-05-30T08:18:58.927Z,100355.72
2023-05-30T08:22:01.472Z,100354.00
2023-05-30T08:25:04.279Z,100355.91
2023-05-30T08:28:07.286Z,100344.47
2023-05-30T08:31:09.958Z,100358.63
2023-05-30T08:34:12.523Z,100363.34
2023-05-30T08:37:15.208Z,100362.19
2023-05-30T08:40:18.274Z,100359.91
2023-05-30T08:43:20.875Z,100358.44
2023-05-30T08:46:24.430Z,100369.47
2023-05-30T08:49:32.388Z,100362.81
2023-05-30T08:52:36.655Z,100367.00
2023-05-30T08:55:41.147Z,100373.69
2023-05-30T08:58:48.923Z,100369.69
2023-05-30T09:01:55.278Z,100373.59
2023-05-30T09:05:01.007Z,100375.69
2023-05-30T09:08:04.053Z,100373.84
2023-05-30T09:11:06.730Z,100370.19
2023-05-30T09:14:09.483Z,100377.84
2023-05-30T09:17:12.186Z,100375.84
2023-05-30T09:20:18.185Z,100377.59
2023-05-30T09:23:22.945Z,100392.88
2023-05-30T09:26:25.561Z,100385.78
2023-05-30T09:29:28.424Z,100392.38
2023-05-30T09:32:35.483Z,100380.91
2023-05-30T09:35:38.446Z,100383.84
2023-05-30T09:38:53.248Z,100392.66
2023-05-30T09:41:58.781Z,100393.16
2023-05-30T09:45:04.574Z,100395.88
2023-05-30T09:48:07.263Z,100398.72
2023-05-30T09:51:12.956Z,100387.75
2023-05-30T09:54:15.963Z,100390.06
2023-05-30T09:57:18.491Z,100398.53
2023-05-30T10:00:27.542Z,100390.31
2023-05-30T10:03:44.546Z,100393.66
2023-05-30T10:06:54.956Z,100390.72
2023-05-30T10:09:58.320Z,100396.06
2023-05-30T10:13:01.761Z,100393.84
2023-05-30T10:16:10.768Z,100395.97
2023-05-30T10:19:18.408Z,100384.28
2023-05-30T10:22:22.688Z,100385.91
2023-05-30T10:25:28.406Z,100385.44
2023-05-30T10:28:35.086Z,100376.00
2023-05-30T10:31:37.765Z,100376.47
2023-05-30T10:34:49.129Z,100378.72
2023-05-30T10:37:52.362Z,100377.63
2023-05-30T10:41:17.527Z,100365.06
2023-05-30T10:44:56.124Z,100369.41
2023-05-30T10:48:10.870Z,100366.50
2023-05-30T10:51:15.354Z,100367.16
2023-05-30T10:54:18.026Z,100356.31
2023-05-30T10:57:29.897Z,100355.50
2023-05-30T11:00:34.325Z,100363.28
2023-05-30T11:03:37.499Z,100357.09
2023-05-30T11:06:45.908Z,100363.75
2023-05-30T11:10:09.962Z,100363.03
2023-05-30T11:13:16.122Z,100360.09
2023-05-30T11:16:25.441Z,100359.56
2023-05-30T11:19:42.534Z,100368.25
2023-05-30T11:23:03.592Z,100360.31
2023-05-30T11:26:06.389Z,100356.41
2023-05-30T11:29:34.975Z,100362.28
2023-05-30T11:32:39.652Z,100365.56
2023-05-30T11:35:50.361Z,100357.47
2023-05-30T11:38:54.482Z,100351.66
2023-05-30T11:41:57.744Z,100361.97
2023-05-30T11:45:01.102Z,100351.84
2023-05-30T11:48:06.643Z,100347.13
2023-05-30T11:51:10.216Z,100338.94
2023-05-30T11:54:13.018Z,100332.16
2023-05-30T11:57:18.331Z,100329.75
2023-05-30T12:00:21.220Z,100329.03
2023-05-30T12:03:24.089Z,100328.25
2023-05-30T12:06:26.755Z,100328.63
2023-05-30T12:09:36.074Z,100321.06
2023-05-30T12:12:39.218Z,100318.78
2023-05-30T12:15:41.735Z,100309.72
2023-05-30T12:18:49.409Z,100313.81
2023-05-30T12:21:52.865Z,100312.34
2023-05-30T12:24:55.634Z,100299.06
2023-05-30T12:27:58.406Z,100302.50
2023-05-30T12:31:01.731Z,100297.31
2023-05-30T12:34:04.705Z,100304.47
2023-05-30T12:37:08.906Z,100294.25
2023-05-30T12:40:11.832Z,100281.88
2023-05-30T12:43:16.048Z,100286.75
2023-05-30T12:46:18.971Z,100292.19
2023-05-30T12:49:21.565Z,100287.59
2023-05-30T12:52:27.168Z,100285.69
2023-05-30T12:55:29.752Z,100283.28
2023-05-30T12:58:32.278Z,100294.34
2023-05-30T13:01:34.874Z,100296.34
2023-05-30T13:04:39.513Z,100300.69
2023-05-30T13:07:42.091Z,100307.47
2023-05-30T13:10:46.004Z,100301.81
2023-05-30T13:13:48.680Z,100305.81
2023-05-30T13:16:51.391Z,100306.72
2023-05-30T13:19:54.169Z,100296.69
2023-05-30T13:22:56.896Z,100300.13
2023-05-30T13:25:59.405Z,100304.88
2023-05-30T13:29:06.103Z,100302.06
2023-05-30T13:32:09.429Z,100298.38
2023-05-30T13:35:11.998Z,100303.66
2023-05-30T13:38:14.983Z,100310.56
2023-05-30T13:41:18.160Z,100304.19
2023-05-30T13:44:21.046Z,100301.47
2023-05-30T13:47:23.682Z,100308.75
2023-05-30T13:50:26.570Z,100308.41
2023-05-30T13:53:30.435Z,100307.31
2023-05-30T13:56:38.858Z,100304.72
2023-05-30T13:59:42.038Z,100304.66
2023-05-30T14:02:44.707Z,100306.72
2023-05-30T14:05:47.852Z,100307.19
2023-05-30T14:08:51.692Z,100321.16
2023-05-30T14:11:54.281Z,100330.69
2023-05-30T14:14:59.520Z,100364.91
2023-05-30T14:21:06.505Z,100376.66
2023-05-30T14:24:12.548Z,100373.38
2023-05-30T14:27:15.980Z,100388.56
2023-05-30T14:30:24.511Z,100384.25
2023-05-30T14:33:30.412Z,100382.81
2023-05-30T14:36:39.104Z,100392.09
2023-05-30T14:39:41.945Z,100405.25
2023-05-30T14:42:48.110Z,100396.63
2023-05-30T14:45:51.224Z,100402.31
2023-05-30T14:48:54.600Z,100407.91
2023-05-30T14:51:57.931Z,100432.53
2023-05-30T14:55:01.058Z,100427.13
2023-05-30T14:58:04.107Z,100419.53
2023-05-30T15:01:24.666Z,100419.25
2023-05-30T15:04:29.965Z,100422.47
2023-05-30T15:07:32.920Z,100408.63
2023-05-30T15:10:35.949Z,100400.41
2023-05-30T15:13:43.881Z,100410.09
2023-05-30T15:16:51.645Z,100414.09
2023-05-30T15:19:55.338Z,100418.38
2023-05-30T15:22:58.110Z,100417.44
2023-05-30T15:26:00.861Z,100412.19
2023-05-30T15:29:03.595Z,100394.25
2023-05-30T15:32:06.536Z,100389.47
2023-05-30T15:35:10.684Z,100389.72
2023-05-30T15:38:14.255Z,100385.28
2023-05-30T15:41:16.862Z,100382.94
2023-05-30T15:44:19.593Z,100374.50
2023-05-30T15:47:22.152Z,100369.44
2023-05-30T15:50:25.016Z,100358.88
2023-05-30T15:53:28.738Z,100350.75
2023-05-30T15:56:31.806Z,100355.97
2023-05-30T15:59:34.357Z,100353.53
2023-05-30T16:02:36.904Z,100350.81
2023-05-30T16:05:42.898Z,100358.66
2023-05-30T16:08:45.409Z,100347.47
2023-05-30T16:11:47.955Z,100343.44
2023-05-30T16:14:50.597Z,100342.84
2023-05-30T16:17:53.164Z,100343.59
2023-05-30T16:20:55.758Z,100335.22
2023-05-30T16:23:58.274Z,100331.78
2023-05-30T16:27:04.680Z,100334.53
2023-05-30T16:30:07.922Z,100329.06
2023-05-30T16:33:11.178Z,100322.19
2023-05-30T16:36:13.961Z,100326.38
2023-05-30T16:39:17.612Z,100327.53
2023-05-30T16:42:20.216Z,100329.16
2023-05-30T16:45:22.675Z,100315.44
2023-05-30T16:48:27.045Z,100317.09
2023-05-30T16:51:29.522Z,100322.28
2023-05-30T16:54:32.438Z,100332.69
2023-05-30T16:57:36.054Z,100335.13
2023-05-30T17:00:38.638Z,100339.34
2023-05-30T17:03:44.545Z,100342.38
2023-05-30T17:06:47.095Z,100347.75
2023-05-30T17:09:51.399Z,100349.94
2023-05-30T17:12:53.998Z,100344.44
2023-05-30T17:15:56.515Z,100363.00
2023-05-30T17:19:00.838Z,100355.78
2023-05-30T17:22:03.358Z,100356.66
2023-05-30T17:25:06.668Z,100358.63
2023-05-30T17:28:09.153Z,100371.75
2023-05-30T17:31:11.729Z,100378.06
2023-05-30T17:34:14.192Z,100377.09
2023-05-30T17:37:16.983Z,100377.19
2023-05-30T17:40:20.087Z,100386.22
2023-05-30T17:43:24.196Z,100392.97
2023-05-30T17:46:27.036Z,100396.31
2023-05-30T17:49:30.152Z,100399.88
2023-05-30T17:52:32.689Z,100406.53
2023-05-30T17:55:35.479Z,100407.63
2023-05-30T17:58:37.967Z,100420.41
2023-05-30T18:01:40.603Z,100409.66
2023-05-30T18:04:44.384Z,100410.50
2023-05-30T18:07:46.954Z,100418.63
2023-05-30T18:10:49.556Z,100420.53
2023-05-30T18:13:52.235Z,100418.06
2023-05-30T18:16:54.940Z,100424.81
2023-05-30T18:19:57.528Z,100428.78
2023-05-30T18:23:00.171Z,100424.41
2023-05-30T18:26:05.370Z,100430.50
2023-05-30T18:29:09.109Z,100438.88
2023-05-30T18:32:12.023Z,100438.09
2023-05-30T18:35:16.544Z,100429.00
2023-05-30T18:38:19.096Z,100445.00
2023-05-30T18:41:22.399Z,100456.22
2023-05-30T18:44:25.093Z,100452.72
2023-05-30T18:47:27.832Z,100463.25
2023-05-30T18:50:30.696Z,100461.56
2023-05-30T18:53:33.271Z,100463.81
2023-05-30T18:56:36.144Z,100465.81
2023-05-30T18:59:38.797Z,100472.25
2023-05-30T19:02:42.192Z,100479.75
2023-05-30T19:05:44.859Z,100481.44
2023-05-30T19:08:49.091Z,100482.72
2023-05-30T19:11:51.874Z,100491.09
2023-05-30T19:14:54.429Z,100494.06
2023-05-30T19:17:57.054Z,100491.75
2023-05-30T19:21:00.714Z,100492.84
2023-05-30T19:24:03.889Z,100504.75
2023-05-30T19:27:06.837Z,100492.59
2023-05-30T19:30:09.549Z,100500.88
2023-05-30T19:33:13.106Z,100502.22
2023-05-30T19:36:15.697Z,100514.59
2023-05-30T19:39:18.228Z,100500.34
2023-05-30T19:42:20.745Z,100502.78
2023-05-30T19:45:24.737Z,100516.06
2023-05-30T19:48:27.371Z,100517.78
2023-05-30T19:51:29.927Z,100513.59
2023-05-30T19:54:32.473Z,100508.59
2023-05-30T19:57:35.088Z,100510.91
2023-05-30T20:00:41.939Z,100507.53
2023-05-30T20:03:44.612Z,100500.38
2023-05-30T20:06:47.172Z,100499.63
2023-05-30T20:09:49.585Z,100510.00
2023-05-30T20:12:52.027Z,100513.59
2023-05-30T20:15:54.646Z,100497.03
2023-05-30T20:18:57.187Z,100508.69
2023-05-30T20:21:59.768Z,100504.66
2023-05-30T20:25:02.511Z,100500.78
2023-05-30T20:28:05.677Z,100509.28
2023-05-30T20:31:08.417Z,100525.59
2023-05-30T20:34:11.028Z,100515.28
2023-05-30T20:37:13.908Z,100521.44
2023-05-30T20:40:16.401Z,100520.06
2023-05-30T20:43:22.677Z,100519.47
2023-05-30T20:46:25.482Z,100521.53
2023-05-30T20:49:28.129Z,100538.25
2023-05-30T20:52:31.517Z,100536.28
2023-05-30T20:55:34.001Z,100531.09
2023-05-30T20:58:36.645Z,100529.41
2023-05-30T21:01:42.169Z,100529.34
2023-05-30T21:04:44.781Z,100528.84
2023-05-30T21:07:47.454Z,100532.28
2023-05-30T21:10:49.982Z,100532.78
2023-05-30T21:13:52.991Z,100530.72
2023-05-30T21:16:55.635Z,100524.44
2023-05-30T21:19:58.254Z,100524.03
2023-05-30T21:23:00.788Z,100547.06
2023-05-30T21:26:03.388Z,100535.75
2023-05-30T21:29:06.656Z,100536.63
2023-05-30T21:32:09.200Z,100545.94
2023-05-30T21:35:11.846Z,100542.00
2023-05-30T21:38:14.460Z,100539.69
2023-05-30T21:41:18.019Z,100535.25
2023-05-30T21:44:20.699Z,100539.75
2023-05-30T21:47:23.242Z,100531.53
2023-05-30T21:50:25.868Z,100538.44
2023-05-30T21:53:28.450Z,100534.00
2023-05-30T21:56:31.577Z,100537.44
2023-05-30T21:59:37.937Z,100541.44
2023-05-30T22:02:40.545Z,100539.34
2023-05-30T22:05:43.434Z,100542.03
2023-05-30T22:08:46.096Z,100538.50
2023-05-30T22:11:49.180Z,100537.66
2023-05-30T22:14:51.762Z,100541.44
2023-05-30T22:17:54.390Z,100540.84
2023-05-30T22:20:56.973Z,100537.00
2023-05-30T22:23:59.512Z,100540.75
2023-05-30T22:27:02.113Z,100538.03
2023-05-30T22:30:06.095Z,100538.63
2023-05-30T22:33:08.659Z,100537.56
2023-05-30T22:36:11.353Z,100532.16
2023-05-30T22:39:14.069Z,100521.84
2023-05-30T22:42:16.640Z,100519.38
2023-05-30T22:45:19.286Z,100521.84
2023-05-30T22:48:21.767Z,100525.38
2023-05-30T22:51:24.325Z,100525.97
2023-05-30T22:54:26.886Z,100519.72
2023-05-30T22:57:29.539Z,100520.31
2023-05-30T23:00:32.043Z,100521.16
2023-05-30T23:03:34.826Z,100521.47
2023-05-30T23:06:37.578Z,100517.25
2023-05-30T23:09:40.068Z,100526.03
2023-05-30T23:12:42.564Z,100527.44
2023-05-30T23:15:45.139Z,100526.13
2023-05-30T23:18:47.734Z,100529.75
2023-05-30T23:21:50.246Z,100529.25
2023-05-30T23:24:52.783Z,100530.44
2023-05-30T23:27:56.095Z,100526.66
2023-05-30T23:30:58.701Z,100530.19
2023-05-30T23:34:01.563Z,100528.53
2023-05-30T23:37:04.147Z,100530.78
2023-05-30T23:40:07.483Z,100529.13
2023-05-30T23:43:10.002Z,100522.88
2023-05-30T23:46:13.252Z,100528.78
2023-05-30T23:49:16.942Z,100529.00
2023-05-30T23:52:19.557Z,100521.63
2023-05-30T23:55:22.230Z,100523.44
2023-05-30T23:58:24.731Z,100522.50
